KDUC/DUC METAR and TAF weather

Enter ICAO airport designator
Station Type Date Time Source
KDUC METAR 2021/07/28 20:35 UTC NOAA

KDUC 282035Z AUTO 14010KT 10SM CLR 34/22 A3005 RMK AO2 LTG DSNT W T03440221


Station Type Date Time Source
KDUC Decoded METAR 2021/07/28 20:35 UTC NOAA

Duncan, Halliburton Field Airport, OK, United States (KDUC) 34-28-15N 097-57-36W
Jul 28, 2021 - 04:35 PM EDT / 2021.07.28 2035 UTC
Wind: from the SE (140 degrees) at 12 MPH (10 KT):0
Visibility: 10 mile(s):0
Sky conditions: clear
Weather: Lightning observed
Temperature: 93.9 F (34.4 C)
Heat index: 101.5 F (38.6 C):1
Dew Point: 71.8 F (22.1 C)
Relative Humidity: 48%
Pressure (altimeter): 30.05 in. Hg (1017 hPa)
ob: KDUC 282035Z AUTO 14010KT 10SM CLR 34/22 A3005 RMK AO2 LTG DSNT W T03440221
cycle: 20

Station Type Date Time Source
KDUC TAF UTC NOAA

Error!

Example: see airport list